sensor_id;sensor_type;location;lat;lon;timestamp;temperature;humidity
1405;DHT22;697;51.114;6.542;2024-01-06T00:01:55;8.60;99.90
1405;DHT22;697;51.114;6.542;2024-01-06T00:04:21;8.50;99.90
1405;DHT22;697;51.114;6.542;2024-01-06T00:06:48;8.50;99.90
1405;DHT22;697;51.114;6.542;2024-01-06T00:09:15;8.50;99.90
1405;DHT22;697;51.114;6.542;2024-01-06T00:11:42;8.50;99.90
1405;DHT22;697;51.114;6.542;2024-01-06T00:14:10;8.50;99.90
1405;DHT22;697;51.114;6.542;2024-01-06T00:16:37;8.50;99.90
1405;DHT22;697;51.114;6.542;2024-01-06T00:19:03;8.50;99.90
1405;DHT22;697;51.114;6.542;2024-01-06T00:21:30;8.40;99.90
1405;DHT22;697;51.114;6.542;2024-01-06T00:23:57;8.40;99.90
1405;DHT22;697;51.114;6.542;2024-01-06T00:26:24;8.40;99.90
1405;DHT22;697;51.114;6.542;2024-01-06T00:28:51;8.40;99.90
1405;DHT22;697;51.114;6.542;2024-01-06T00:31:19;8.50;99.90
1405;DHT22;697;51.114;6.542;2024-01-06T00:33:46;8.50;99.90
1405;DHT22;697;51.114;6.542;2024-01-06T00:36:12;8.50;99.90
1405;DHT22;697;51.114;6.542;2024-01-06T00:38:39;8.40;99.90
1405;DHT22;697;51.114;6.542;2024-01-06T00:41:06;8.40;99.90
1405;DHT22;697;51.114;6.542;2024-01-06T00:43:32;8.40;99.90
1405;DHT22;697;51.114;6.542;2024-01-06T00:45:59;8.40;99.90
1405;DHT22;697;51.114;6.542;2024-01-06T00:48:27;8.40;99.90
1405;DHT22;697;51.114;6.542;2024-01-06T00:50:54;8.40;99.90
1405;DHT22;697;51.114;6.542;2024-01-06T00:53:21;8.40;99.90
1405;DHT22;697;51.114;6.542;2024-01-06T00:55:48;8.40;99.90
1405;DHT22;697;51.114;6.542;2024-01-06T00:58:15;8.50;99.90
1405;DHT22;697;51.114;6.542;2024-01-06T01:00:42;8.50;99.90
1405;DHT22;697;51.114;6.542;2024-01-06T01:03:09;8.50;99.90
1405;DHT22;697;51.114;6.542;2024-01-06T01:05:37;8.50;99.90
1405;DHT22;697;51.114;6.542;2024-01-06T01:08:04;8.40;99.90
1405;DHT22;697;51.114;6.542;2024-01-06T01:10:31;8.50;99.90
1405;DHT22;697;51.114;6.542;2024-01-06T01:12:57;8.40;99.90
1405;DHT22;697;51.114;6.542;2024-01-06T01:15:24;8.50;99.90
1405;DHT22;697;51.114;6.542;2024-01-06T01:17:51;8.50;99.90
1405;DHT22;697;51.114;6.542;2024-01-06T01:20:18;8.50;99.90
1405;DHT22;697;51.114;6.542;2024-01-06T01:22:46;8.60;99.90
1405;DHT22;697;51.114;6.542;2024-01-06T01:25:13;8.60;99.90
1405;DHT22;697;51.114;6.542;2024-01-06T01:27:40;8.60;99.90
1405;DHT22;697;51.114;6.542;2024-01-06T01:30:08;8.60;99.90
1405;DHT22;697;51.114;6.542;2024-01-06T01:32:35;8.60;99.90
1405;DHT22;697;51.114;6.542;2024-01-06T01:35:01;8.60;99.90
1405;DHT22;697;51.114;6.542;2024-01-06T01:37:28;8.70;99.90
1405;DHT22;697;51.114;6.542;2024-01-06T01:39:57;8.70;99.90
1405;DHT22;697;51.114;6.542;2024-01-06T01:42:23;8.70;99.90
1405;DHT22;697;51.114;6.542;2024-01-06T01:44:50;8.70;99.90
1405;DHT22;697;51.114;6.542;2024-01-06T01:47:17;8.80;99.90
1405;DHT22;697;51.114;6.542;2024-01-06T01:49:45;8.80;99.90
1405;DHT22;697;51.114;6.542;2024-01-06T01:52:13;8.80;99.90
1405;DHT22;697;51.114;6.542;2024-01-06T01:54:40;8.80;99.90
1405;DHT22;697;51.114;6.542;2024-01-06T01:57:10;8.80;99.90
1405;DHT22;697;51.114;6.542;2024-01-06T01:59:37;8.80;99.90
1405;DHT22;697;51.114;6.542;2024-01-06T02:02:04;8.80;99.90
1405;DHT22;697;51.114;6.542;2024-01-06T02:04:31;8.80;99.90
1405;DHT22;697;51.114;6.542;2024-01-06T02:06:58;8.80;99.90
1405;DHT22;697;51.114;6.542;2024-01-06T02:09:24;8.80;99.90
1405;DHT22;697;51.114;6.542;2024-01-06T02:11:54;8.80;99.90
1405;DHT22;697;51.114;6.542;2024-01-06T02:14:22;8.80;99.90
1405;DHT22;697;51.114;6.542;2024-01-06T02:16:49;8.80;99.90
1405;DHT22;697;51.114;6.542;2024-01-06T02:19:16;8.80;99.90
1405;DHT22;697;51.114;6.542;2024-01-06T02:24:12;8.80;99.90
1405;DHT22;697;51.114;6.542;2024-01-06T02:26:39;8.80;99.90
1405;DHT22;697;51.114;6.542;2024-01-06T02:29:06;8.80;99.90
1405;DHT22;697;51.114;6.542;2024-01-06T02:31:32;8.80;99.90
1405;DHT22;697;51.114;6.542;2024-01-06T02:33:59;8.80;99.90
1405;DHT22;697;51.114;6.542;2024-01-06T02:36:26;8.80;99.90
1405;DHT22;697;51.114;6.542;2024-01-06T02:38:55;8.80;99.90
1405;DHT22;697;51.114;6.542;2024-01-06T02:41:24;8.80;99.90
1405;DHT22;697;51.114;6.542;2024-01-06T02:43:50;8.80;99.90
1405;DHT22;697;51.114;6.542;2024-01-06T02:46:17;8.80;99.90
1405;DHT22;697;51.114;6.542;2024-01-06T02:48:45;8.80;99.90
1405;DHT22;697;51.114;6.542;2024-01-06T02:51:11;8.80;99.90
1405;DHT22;697;51.114;6.542;2024-01-06T02:53:39;8.80;99.90
1405;DHT22;697;51.114;6.542;2024-01-06T02:56:09;8.80;99.90
1405;DHT22;697;51.114;6.542;2024-01-06T02:58:38;8.80;99.90
1405;DHT22;697;51.114;6.542;2024-01-06T03:01:06;8.70;99.90
1405;DHT22;697;51.114;6.542;2024-01-06T03:03:33;8.60;99.90
1405;DHT22;697;51.114;6.542;2024-01-06T03:05:59;8.60;99.90
1405;DHT22;697;51.114;6.542;2024-01-06T03:08:29;8.70;99.90
1405;DHT22;697;51.114;6.542;2024-01-06T03:10:56;8.70;99.90
1405;DHT22;697;51.114;6.542;2024-01-06T03:13:23;8.70;99.90
1405;DHT22;697;51.114;6.542;2024-01-06T03:15:53;8.70;99.90
1405;DHT22;697;51.114;6.542;2024-01-06T03:18:20;8.70;99.90
1405;DHT22;697;51.114;6.542;2024-01-06T03:20:46;8.70;99.90
1405;DHT22;697;51.114;6.542;2024-01-06T03:23:13;8.70;99.90
1405;DHT22;697;51.114;6.542;2024-01-06T03:25:41;8.70;99.90
1405;DHT22;697;51.114;6.542;2024-01-06T03:28:08;8.70;99.90
1405;DHT22;697;51.114;6.542;2024-01-06T03:30:35;8.70;99.90
1405;DHT22;697;51.114;6.542;2024-01-06T03:33:03;8.70;99.90
1405;DHT22;697;51.114;6.542;2024-01-06T03:35:30;8.70;99.90
1405;DHT22;697;51.114;6.542;2024-01-06T03:37:57;8.70;99.90
1405;DHT22;697;51.114;6.542;2024-01-06T03:40:24;8.70;99.90
1405;DHT22;697;51.114;6.542;2024-01-06T03:42:50;8.70;99.90
1405;DHT22;697;51.114;6.542;2024-01-06T03:45:19;8.60;99.90
1405;DHT22;697;51.114;6.542;2024-01-06T03:47:46;8.60;99.90
1405;DHT22;697;51.114;6.542;2024-01-06T03:50:14;8.70;99.90
1405;DHT22;697;51.114;6.542;2024-01-06T03:52:41;8.70;99.90
1405;DHT22;697;51.114;6.542;2024-01-06T03:55:08;8.70;99.90
1405;DHT22;697;51.114;6.542;2024-01-06T03:57:35;8.80;99.90
1405;DHT22;697;51.114;6.542;2024-01-06T04:00:02;8.80;99.90
1405;DHT22;697;51.114;6.542;2024-01-06T04:02:28;8.80;99.90
1405;DHT22;697;51.114;6.542;2024-01-06T04:04:55;8.80;99.90
1405;DHT22;697;51.114;6.542;2024-01-06T04:07:23;8.80;99.90
1405;DHT22;697;51.114;6.542;2024-01-06T04:09:50;8.80;99.90
1405;DHT22;697;51.114;6.542;2024-01-06T04:12:17;8.70;99.90
1405;DHT22;697;51.114;6.542;2024-01-06T04:14:44;8.60;99.90
1405;DHT22;697;51.114;6.542;2024-01-06T04:17:11;8.50;99.90
1405;DHT22;697;51.114;6.542;2024-01-06T04:19:39;8.50;99.90
1405;DHT22;697;51.114;6.542;2024-01-06T04:22:06;8.50;99.90
1405;DHT22;697;51.114;6.542;2024-01-06T04:24:34;8.40;99.90
1405;DHT22;697;51.114;6.542;2024-01-06T04:27:03;8.40;99.90
1405;DHT22;697;51.114;6.542;2024-01-06T04:29:30;8.40;99.90
1405;DHT22;697;51.114;6.542;2024-01-06T04:31:58;8.30;99.90
1405;DHT22;697;51.114;6.542;2024-01-06T04:34:24;8.20;99.90
1405;DHT22;697;51.114;6.542;2024-01-06T04:36:51;8.20;99.90
1405;DHT22;697;51.114;6.542;2024-01-06T04:39:18;8.20;99.90
1405;DHT22;697;51.114;6.542;2024-01-06T04:41:46;8.10;99.90
1405;DHT22;697;51.114;6.542;2024-01-06T04:44:13;8.10;99.90
1405;DHT22;697;51.114;6.542;2024-01-06T04:46:40;8.10;99.90
1405;DHT22;697;51.114;6.542;2024-01-06T04:49:06;8.10;99.90
1405;DHT22;697;51.114;6.542;2024-01-06T04:51:33;8.10;99.90
1405;DHT22;697;51.114;6.542;2024-01-06T04:54:00;8.10;99.90
1405;DHT22;697;51.114;6.542;2024-01-06T04:56:26;8.10;99.90
1405;DHT22;697;51.114;6.542;2024-01-06T04:58:54;8.00;99.90
1405;DHT22;697;51.114;6.542;2024-01-06T05:01:23;8.10;99.90
1405;DHT22;697;51.114;6.542;2024-01-06T05:03:49;8.10;99.90
1405;DHT22;697;51.114;6.542;2024-01-06T05:06:19;8.00;99.90
1405;DHT22;697;51.114;6.542;2024-01-06T05:08:46;8.00;99.90
1405;DHT22;697;51.114;6.542;2024-01-06T05:11:12;8.00;99.90
1405;DHT22;697;51.114;6.542;2024-01-06T05:13:39;8.00;99.90
1405;DHT22;697;51.114;6.542;2024-01-06T05:16:08;8.00;99.90
1405;DHT22;697;51.114;6.542;2024-01-06T05:18:35;8.10;99.90
1405;DHT22;697;51.114;6.542;2024-01-06T05:21:02;8.10;99.90
1405;DHT22;697;51.114;6.542;2024-01-06T05:23:29;8.10;99.90
1405;DHT22;697;51.114;6.542;2024-01-06T05:25:56;8.10;99.90
1405;DHT22;697;51.114;6.542;2024-01-06T05:28:23;8.10;99.90
1405;DHT22;697;51.114;6.542;2024-01-06T05:30:50;8.10;99.90
1405;DHT22;697;51.114;6.542;2024-01-06T05:33:18;8.10;99.90
1405;DHT22;697;51.114;6.542;2024-01-06T05:35:45;8.00;99.90
1405;DHT22;697;51.114;6.542;2024-01-06T05:38:12;8.00;99.90
1405;DHT22;697;51.114;6.542;2024-01-06T05:40:39;8.00;99.90
1405;DHT22;697;51.114;6.542;2024-01-06T05:43:05;8.00;99.90
1405;DHT22;697;51.114;6.542;2024-01-06T05:45:32;8.00;99.90
1405;DHT22;697;51.114;6.542;2024-01-06T05:47:59;8.00;99.90
1405;DHT22;697;51.114;6.542;2024-01-06T05:50:27;8.00;99.90
1405;DHT22;697;51.114;6.542;2024-01-06T05:52:54;8.00;99.90
1405;DHT22;697;51.114;6.542;2024-01-06T05:55:21;8.00;99.90
1405;DHT22;697;51.114;6.542;2024-01-06T05:57:48;8.00;99.90
1405;DHT22;697;51.114;6.542;2024-01-06T06:00:15;8.00;99.90
1405;DHT22;697;51.114;6.542;2024-01-06T06:02:42;7.90;99.90
1405;DHT22;697;51.114;6.542;2024-01-06T06:05:09;7.90;99.90
1405;DHT22;697;51.114;6.542;2024-01-06T06:07:38;8.00;99.90
1405;DHT22;697;51.114;6.542;2024-01-06T06:10:07;7.90;99.90
1405;DHT22;697;51.114;6.542;2024-01-06T06:12:34;8.00;99.90
1405;DHT22;697;51.114;6.542;2024-01-06T06:15:00;8.00;99.90
1405;DHT22;697;51.114;6.542;2024-01-06T06:17:29;8.00;99.90
1405;DHT22;697;51.114;6.542;2024-01-06T06:19:56;8.00;99.90
1405;DHT22;697;51.114;6.542;2024-01-06T06:22:22;8.00;99.90
1405;DHT22;697;51.114;6.542;2024-01-06T06:24:53;8.00;99.90
1405;DHT22;697;51.114;6.542;2024-01-06T06:27:19;8.00;99.90
1405;DHT22;697;51.114;6.542;2024-01-06T06:29:46;8.00;99.90
1405;DHT22;697;51.114;6.542;2024-01-06T06:32:13;8.00;99.90
1405;DHT22;697;51.114;6.542;2024-01-06T06:34:40;7.90;99.90
1405;DHT22;697;51.114;6.542;2024-01-06T06:37:07;8.00;99.90
1405;DHT22;697;51.114;6.542;2024-01-06T06:39:34;8.00;99.90
1405;DHT22;697;51.114;6.542;2024-01-06T06:42:03;7.90;99.90
1405;DHT22;697;51.114;6.542;2024-01-06T06:44:30;7.90;99.90
1405;DHT22;697;51.114;6.542;2024-01-06T06:46:57;7.90;99.90
1405;DHT22;697;51.114;6.542;2024-01-06T06:49:24;7.90;99.90
1405;DHT22;697;51.114;6.542;2024-01-06T06:51:51;7.80;99.90
1405;DHT22;697;51.114;6.542;2024-01-06T06:54:18;7.90;99.90
1405;DHT22;697;51.114;6.542;2024-01-06T06:56:44;7.90;99.90
1405;DHT22;697;51.114;6.542;2024-01-06T06:59:13;7.90;99.90
1405;DHT22;697;51.114;6.542;2024-01-06T07:01:40;7.90;99.90
1405;DHT22;697;51.114;6.542;2024-01-06T07:04:06;7.90;99.90
1405;DHT22;697;51.114;6.542;2024-01-06T07:06:33;7.90;99.90
1405;DHT22;697;51.114;6.542;2024-01-06T07:09:02;7.80;99.90
1405;DHT22;697;51.114;6.542;2024-01-06T07:11:30;7.80;99.90
1405;DHT22;697;51.114;6.542;2024-01-06T07:13:57;7.80;99.90
1405;DHT22;697;51.114;6.542;2024-01-06T07:16:24;7.80;99.90
1405;DHT22;697;51.114;6.542;2024-01-06T07:18:51;7.80;99.90
1405;DHT22;697;51.114;6.542;2024-01-06T07:21:17;7.70;99.90
1405;DHT22;697;51.114;6.542;2024-01-06T07:23:45;7.70;99.90
1405;DHT22;697;51.114;6.542;2024-01-06T07:26:11;7.70;99.90
1405;DHT22;697;51.114;6.542;2024-01-06T07:28:38;7.70;99.90
1405;DHT22;697;51.114;6.542;2024-01-06T07:31:05;7.70;99.90
1405;DHT22;697;51.114;6.542;2024-01-06T07:33:33;7.60;99.90
1405;DHT22;697;51.114;6.542;2024-01-06T07:36:00;7.60;99.90
1405;DHT22;697;51.114;6.542;2024-01-06T07:38:27;7.60;99.90
1405;DHT22;697;51.114;6.542;2024-01-06T07:40:56;7.50;99.90
1405;DHT22;697;51.114;6.542;2024-01-06T07:43:23;7.50;99.90
1405;DHT22;697;51.114;6.542;2024-01-06T07:45:49;7.50;99.90
1405;DHT22;697;51.114;6.542;2024-01-06T07:48:16;7.50;99.90
1405;DHT22;697;51.114;6.542;2024-01-06T07:50:45;7.50;99.90
1405;DHT22;697;51.114;6.542;2024-01-06T07:53:11;7.50;99.90
1405;DHT22;697;51.114;6.542;2024-01-06T07:55:39;7.50;99.90
1405;DHT22;697;51.114;6.542;2024-01-06T07:58:06;7.50;99.90
1405;DHT22;697;51.114;6.542;2024-01-06T08:00:33;7.50;99.90
1405;DHT22;697;51.114;6.542;2024-01-06T08:02:59;7.50;99.90
1405;DHT22;697;51.114;6.542;2024-01-06T08:05:27;7.50;99.90
1405;DHT22;697;51.114;6.542;2024-01-06T08:07:56;7.50;99.90
1405;DHT22;697;51.114;6.542;2024-01-06T08:10:22;7.50;99.90
1405;DHT22;697;51.114;6.542;2024-01-06T08:12:49;7.50;99.90
1405;DHT22;697;51.114;6.542;2024-01-06T08:15:16;7.50;99.90
1405;DHT22;697;51.114;6.542;2024-01-06T08:17:43;7.40;99.90
1405;DHT22;697;51.114;6.542;2024-01-06T08:20:10;7.40;99.90
1405;DHT22;697;51.114;6.542;2024-01-06T08:22:37;7.50;99.90
1405;DHT22;697;51.114;6.542;2024-01-06T08:25:07;7.50;99.90
1405;DHT22;697;51.114;6.542;2024-01-06T08:27:33;7.50;99.90
1405;DHT22;697;51.114;6.542;2024-01-06T08:30:00;7.60;99.90
1405;DHT22;697;51.114;6.542;2024-01-06T08:32:27;7.60;99.90
1405;DHT22;697;51.114;6.542;2024-01-06T08:34:54;7.60;99.90
1405;DHT22;697;51.114;6.542;2024-01-06T08:37:20;7.60;99.90
1405;DHT22;697;51.114;6.542;2024-01-06T08:39:47;7.60;99.90
1405;DHT22;697;51.114;6.542;2024-01-06T08:42:15;7.60;99.90
1405;DHT22;697;51.114;6.542;2024-01-06T08:44:42;7.60;99.90
1405;DHT22;697;51.114;6.542;2024-01-06T08:47:09;7.70;99.90
1405;DHT22;697;51.114;6.542;2024-01-06T08:49:36;7.70;99.90
1405;DHT22;697;51.114;6.542;2024-01-06T08:52:03;7.70;99.90
1405;DHT22;697;51.114;6.542;2024-01-06T08:54:31;7.80;99.90
1405;DHT22;697;51.114;6.542;2024-01-06T08:57:00;7.80;99.90
1405;DHT22;697;51.114;6.542;2024-01-06T08:59:28;7.90;99.90
1405;DHT22;697;51.114;6.542;2024-01-06T09:01:54;8.00;99.90
1405;DHT22;697;51.114;6.542;2024-01-06T09:04:22;8.00;99.90
1405;DHT22;697;51.114;6.542;2024-01-06T09:06:49;8.10;99.90
1405;DHT22;697;51.114;6.542;2024-01-06T09:09:16;8.10;99.90
1405;DHT22;697;51.114;6.542;2024-01-06T09:11:43;8.10;99.90
1405;DHT22;697;51.114;6.542;2024-01-06T09:14:11;8.00;99.90
1405;DHT22;697;51.114;6.542;2024-01-06T09:16:39;8.10;99.90
1405;DHT22;697;51.114;6.542;2024-01-06T09:19:06;8.20;99.90
1405;DHT22;697;51.114;6.542;2024-01-06T09:21:34;8.20;99.90
1405;DHT22;697;51.114;6.542;2024-01-06T09:24:03;8.20;99.90
1405;DHT22;697;51.114;6.542;2024-01-06T09:26:32;8.20;99.90
1405;DHT22;697;51.114;6.542;2024-01-06T09:28:59;8.30;99.90
1405;DHT22;697;51.114;6.542;2024-01-06T09:31:26;8.30;99.90
1405;DHT22;697;51.114;6.542;2024-01-06T09:33:54;8.40;99.90
1405;DHT22;697;51.114;6.542;2024-01-06T09:36:21;8.40;99.90
1405;DHT22;697;51.114;6.542;2024-01-06T09:38:47;8.30;99.90
1405;DHT22;697;51.114;6.542;2024-01-06T09:41:14;8.20;99.90
1405;DHT22;697;51.114;6.542;2024-01-06T09:43:41;8.30;99.90
1405;DHT22;697;51.114;6.542;2024-01-06T09:46:11;8.20;99.90
1405;DHT22;697;51.114;6.542;2024-01-06T09:48:44;8.30;99.90
1405;DHT22;697;51.114;6.542;2024-01-06T09:51:13;8.30;99.90
1405;DHT22;697;51.114;6.542;2024-01-06T09:53:46;8.30;99.90
1405;DHT22;697;51.114;6.542;2024-01-06T09:56:15;8.40;99.90
1405;DHT22;697;51.114;6.542;2024-01-06T09:58:42;8.50;99.90
1405;DHT22;697;51.114;6.542;2024-01-06T10:01:10;8.60;99.90
1405;DHT22;697;51.114;6.542;2024-01-06T10:03:37;8.60;99.90
1405;DHT22;697;51.114;6.542;2024-01-06T10:06:04;8.60;99.90
1405;DHT22;697;51.114;6.542;2024-01-06T10:08:33;8.60;99.90
1405;DHT22;697;51.114;6.542;2024-01-06T10:11:00;8.40;99.90
1405;DHT22;697;51.114;6.542;2024-01-06T10:13:28;8.30;99.90
1405;DHT22;697;51.114;6.542;2024-01-06T10:15:55;8.10;99.90
1405;DHT22;697;51.114;6.542;2024-01-06T10:18:22;8.10;99.90
1405;DHT22;697;51.114;6.542;2024-01-06T10:20:50;8.00;99.90
1405;DHT22;697;51.114;6.542;2024-01-06T10:23:17;8.00;99.90
1405;DHT22;697;51.114;6.542;2024-01-06T10:25:45;8.00;99.90
1405;DHT22;697;51.114;6.542;2024-01-06T10:28:13;7.90;99.90
1405;DHT22;697;51.114;6.542;2024-01-06T10:30:40;8.00;99.90
1405;DHT22;697;51.114;6.542;2024-01-06T10:33:09;8.10;99.90
1405;DHT22;697;51.114;6.542;2024-01-06T10:35:36;8.10;99.90
1405;DHT22;697;51.114;6.542;2024-01-06T10:38:03;8.20;99.90
1405;DHT22;697;51.114;6.542;2024-01-06T10:40:30;8.30;99.90
1405;DHT22;697;51.114;6.542;2024-01-06T10:42:59;8.30;99.90
1405;DHT22;697;51.114;6.542;2024-01-06T10:45:28;8.30;99.90
1405;DHT22;697;51.114;6.542;2024-01-06T10:47:56;8.30;99.90
1405;DHT22;697;51.114;6.542;2024-01-06T10:50:24;8.40;99.90
1405;DHT22;697;51.114;6.542;2024-01-06T10:52:55;8.40;99.90
1405;DHT22;697;51.114;6.542;2024-01-06T10:55:23;8.50;99.90
1405;DHT22;697;51.114;6.542;2024-01-06T10:57:54;8.50;99.90
1405;DHT22;697;51.114;6.542;2024-01-06T11:00:23;8.50;99.90
1405;DHT22;697;51.114;6.542;2024-01-06T11:02:54;8.50;99.90
1405;DHT22;697;51.114;6.542;2024-01-06T11:05:22;8.50;99.90
1405;DHT22;697;51.114;6.542;2024-01-06T11:07:50;8.60;99.90
1405;DHT22;697;51.114;6.542;2024-01-06T11:10:21;8.60;99.90
1405;DHT22;697;51.114;6.542;2024-01-06T11:13:10;8.60;99.90
1405;DHT22;697;51.114;6.542;2024-01-06T11:15:43;8.60;99.90
1405;DHT22;697;51.114;6.542;2024-01-06T11:18:31;8.50;99.90
1405;DHT22;697;51.114;6.542;2024-01-06T11:21:19;8.50;99.90
1405;DHT22;697;51.114;6.542;2024-01-06T11:24:23;8.50;99.90
1405;DHT22;697;51.114;6.542;2024-01-06T11:26:53;8.60;99.90
1405;DHT22;697;51.114;6.542;2024-01-06T11:29:22;8.60;99.90
1405;DHT22;697;51.114;6.542;2024-01-06T11:32:18;8.60;99.90
1405;DHT22;697;51.114;6.542;2024-01-06T11:34:49;8.60;99.90
1405;DHT22;697;51.114;6.542;2024-01-06T11:37:19;8.60;99.90
1405;DHT22;697;51.114;6.542;2024-01-06T11:39:46;8.70;99.90
1405;DHT22;697;51.114;6.542;2024-01-06T11:42:14;8.70;99.90
1405;DHT22;697;51.114;6.542;2024-01-06T11:44:43;8.70;99.90
1405;DHT22;697;51.114;6.542;2024-01-06T11:47:11;8.70;99.90
1405;DHT22;697;51.114;6.542;2024-01-06T11:49:44;8.80;99.90
1405;DHT22;697;51.114;6.542;2024-01-06T11:52:11;8.80;99.90
1405;DHT22;697;51.114;6.542;2024-01-06T11:54:38;8.70;99.90
1405;DHT22;697;51.114;6.542;2024-01-06T11:57:05;8.70;99.90
1405;DHT22;697;51.114;6.542;2024-01-06T11:59:32;8.70;99.90
1405;DHT22;697;51.114;6.542;2024-01-06T12:01:59;8.70;99.90
1405;DHT22;697;51.114;6.542;2024-01-06T12:04:26;8.70;99.90
1405;DHT22;697;51.114;6.542;2024-01-06T12:07:05;8.70;99.90
1405;DHT22;697;51.114;6.542;2024-01-06T12:09:31;8.70;99.90
1405;DHT22;697;51.114;6.542;2024-01-06T12:12:01;8.60;99.90
1405;DHT22;697;51.114;6.542;2024-01-06T12:14:28;8.60;99.90
1405;DHT22;697;51.114;6.542;2024-01-06T12:16:56;8.60;99.90
1405;DHT22;697;51.114;6.542;2024-01-06T12:19:28;8.60;99.90
1405;DHT22;697;51.114;6.542;2024-01-06T12:21:59;8.60;99.90
1405;DHT22;697;51.114;6.542;2024-01-06T12:24:27;8.60;99.90
1405;DHT22;697;51.114;6.542;2024-01-06T12:26:55;8.50;99.90
1405;DHT22;697;51.114;6.542;2024-01-06T12:29:23;8.50;99.90
1405;DHT22;697;51.114;6.542;2024-01-06T12:31:52;8.50;99.90
1405;DHT22;697;51.114;6.542;2024-01-06T12:34:20;8.50;99.90
1405;DHT22;697;51.114;6.542;2024-01-06T12:36:47;8.40;99.90
1405;DHT22;697;51.114;6.542;2024-01-06T12:39:16;8.40;99.90
1405;DHT22;697;51.114;6.542;2024-01-06T12:41:44;8.40;99.90
1405;DHT22;697;51.114;6.542;2024-01-06T12:44:11;8.40;99.90
1405;DHT22;697;51.114;6.542;2024-01-06T12:46:38;8.40;99.90
1405;DHT22;697;51.114;6.542;2024-01-06T12:49:05;8.30;99.90
1405;DHT22;697;51.114;6.542;2024-01-06T12:51:32;8.30;99.90
1405;DHT22;697;51.114;6.542;2024-01-06T12:54:00;8.20;99.90
1405;DHT22;697;51.114;6.542;2024-01-06T12:56:28;8.20;99.90
1405;DHT22;697;51.114;6.542;2024-01-06T12:58:55;8.20;99.90
1405;DHT22;697;51.114;6.542;2024-01-06T13:01:22;8.20;99.90
1405;DHT22;697;51.114;6.542;2024-01-06T13:03:49;8.20;99.90
1405;DHT22;697;51.114;6.542;2024-01-06T13:06:17;8.10;99.90
1405;DHT22;697;51.114;6.542;2024-01-06T13:08:44;8.00;99.90
1405;DHT22;697;51.114;6.542;2024-01-06T13:11:11;8.00;99.90
1405;DHT22;697;51.114;6.542;2024-01-06T13:13:39;7.80;99.90
1405;DHT22;697;51.114;6.542;2024-01-06T13:16:07;7.70;99.90
1405;DHT22;697;51.114;6.542;2024-01-06T13:18:35;7.60;99.90
1405;DHT22;697;51.114;6.542;2024-01-06T13:21:02;7.40;99.90
1405;DHT22;697;51.114;6.542;2024-01-06T13:23:29;7.30;99.90
1405;DHT22;697;51.114;6.542;2024-01-06T13:25:56;7.30;99.90
1405;DHT22;697;51.114;6.542;2024-01-06T13:28:23;7.30;99.90
1405;DHT22;697;51.114;6.542;2024-01-06T13:30:52;7.20;99.90
1405;DHT22;697;51.114;6.542;2024-01-06T13:33:19;7.20;99.90
1405;DHT22;697;51.114;6.542;2024-01-06T13:35:45;7.10;99.90
1405;DHT22;697;51.114;6.542;2024-01-06T13:38:11;7.10;99.90
1405;DHT22;697;51.114;6.542;2024-01-06T13:40:38;7.10;99.90
1405;DHT22;697;51.114;6.542;2024-01-06T13:43:06;7.10;99.90
1405;DHT22;697;51.114;6.542;2024-01-06T13:45:34;7.10;99.90
1405;DHT22;697;51.114;6.542;2024-01-06T13:48:03;7.00;99.90
1405;DHT22;697;51.114;6.542;2024-01-06T13:50:30;7.00;99.90
1405;DHT22;697;51.114;6.542;2024-01-06T13:52:58;6.90;99.90
1405;DHT22;697;51.114;6.542;2024-01-06T13:55:28;6.90;99.90
1405;DHT22;697;51.114;6.542;2024-01-06T13:57:54;6.90;99.90
1405;DHT22;697;51.114;6.542;2024-01-06T14:00:21;6.90;99.90
1405;DHT22;697;51.114;6.542;2024-01-06T14:02:48;6.90;99.90
1405;DHT22;697;51.114;6.542;2024-01-06T14:05:17;6.90;99.90
1405;DHT22;697;51.114;6.542;2024-01-06T14:07:44;6.80;99.90
1405;DHT22;697;51.114;6.542;2024-01-06T14:10:14;6.80;99.90
1405;DHT22;697;51.114;6.542;2024-01-06T14:12:41;6.90;99.90
1405;DHT22;697;51.114;6.542;2024-01-06T14:15:09;6.80;99.90
1405;DHT22;697;51.114;6.542;2024-01-06T14:17:35;6.90;99.90
1405;DHT22;697;51.114;6.542;2024-01-06T14:20:03;6.90;99.90
1405;DHT22;697;51.114;6.542;2024-01-06T14:22:31;6.90;99.90
1405;DHT22;697;51.114;6.542;2024-01-06T14:24:58;6.90;99.90
1405;DHT22;697;51.114;6.542;2024-01-06T14:27:25;6.90;99.90
1405;DHT22;697;51.114;6.542;2024-01-06T14:29:54;6.90;99.90
1405;DHT22;697;51.114;6.542;2024-01-06T14:32:21;6.90;99.90
1405;DHT22;697;51.114;6.542;2024-01-06T14:34:49;6.90;99.90
1405;DHT22;697;51.114;6.542;2024-01-06T14:37:16;6.80;99.90
1405;DHT22;697;51.114;6.542;2024-01-06T14:39:44;6.70;99.90
1405;DHT22;697;51.114;6.542;2024-01-06T14:42:12;6.70;99.90
1405;DHT22;697;51.114;6.542;2024-01-06T14:44:38;6.60;99.90
1405;DHT22;697;51.114;6.542;2024-01-06T14:47:07;6.60;99.90
1405;DHT22;697;51.114;6.542;2024-01-06T14:49:34;6.50;99.90
1405;DHT22;697;51.114;6.542;2024-01-06T14:52:01;6.50;99.90
1405;DHT22;697;51.114;6.542;2024-01-06T14:54:28;6.50;99.90
1405;DHT22;697;51.114;6.542;2024-01-06T14:56:59;6.50;99.90
1405;DHT22;697;51.114;6.542;2024-01-06T14:59:26;6.60;99.90
1405;DHT22;697;51.114;6.542;2024-01-06T15:01:53;6.60;99.90
1405;DHT22;697;51.114;6.542;2024-01-06T15:04:20;6.50;99.90
1405;DHT22;697;51.114;6.542;2024-01-06T15:06:47;6.40;99.90
1405;DHT22;697;51.114;6.542;2024-01-06T15:09:15;6.50;99.90
1405;DHT22;697;51.114;6.542;2024-01-06T15:11:42;6.50;99.90
1405;DHT22;697;51.114;6.542;2024-01-06T15:14:10;6.50;99.90
1405;DHT22;697;51.114;6.542;2024-01-06T15:16:38;6.50;99.90
1405;DHT22;697;51.114;6.542;2024-01-06T15:19:04;6.50;99.90
1405;DHT22;697;51.114;6.542;2024-01-06T15:21:33;6.60;99.90
1405;DHT22;697;51.114;6.542;2024-01-06T15:24:02;6.60;99.90
1405;DHT22;697;51.114;6.542;2024-01-06T15:26:29;6.50;99.90
1405;DHT22;697;51.114;6.542;2024-01-06T15:28:56;6.50;99.90
1405;DHT22;697;51.114;6.542;2024-01-06T15:31:27;6.50;99.90
1405;DHT22;697;51.114;6.542;2024-01-06T15:33:54;6.50;99.90
1405;DHT22;697;51.114;6.542;2024-01-06T15:36:21;6.50;99.90
1405;DHT22;697;51.114;6.542;2024-01-06T15:38:49;6.50;99.90
1405;DHT22;697;51.114;6.542;2024-01-06T15:41:16;6.50;99.90
1405;DHT22;697;51.114;6.542;2024-01-06T15:43:44;6.60;99.90
1405;DHT22;697;51.114;6.542;2024-01-06T15:46:11;6.60;99.90
1405;DHT22;697;51.114;6.542;2024-01-06T15:48:39;6.60;99.90
1405;DHT22;697;51.114;6.542;2024-01-06T15:51:06;6.60;99.90
1405;DHT22;697;51.114;6.542;2024-01-06T15:53:33;6.60;99.90
1405;DHT22;697;51.114;6.542;2024-01-06T15:56:00;6.60;99.90
1405;DHT22;697;51.114;6.542;2024-01-06T15:58:27;6.60;99.90
1405;DHT22;697;51.114;6.542;2024-01-06T16:00:53;6.60;99.90
1405;DHT22;697;51.114;6.542;2024-01-06T16:03:20;6.50;99.90
1405;DHT22;697;51.114;6.542;2024-01-06T16:05:48;6.50;99.90
1405;DHT22;697;51.114;6.542;2024-01-06T16:08:15;6.50;99.90
1405;DHT22;697;51.114;6.542;2024-01-06T16:10:42;6.50;99.90
1405;DHT22;697;51.114;6.542;2024-01-06T16:13:09;6.50;99.90
1405;DHT22;697;51.114;6.542;2024-01-06T16:15:36;6.40;99.90
1405;DHT22;697;51.114;6.542;2024-01-06T16:18:03;6.50;99.90
1405;DHT22;697;51.114;6.542;2024-01-06T16:20:30;6.50;99.90
1405;DHT22;697;51.114;6.542;2024-01-06T16:22:58;6.50;99.90
1405;DHT22;697;51.114;6.542;2024-01-06T16:25:25;6.50;99.90
1405;DHT22;697;51.114;6.542;2024-01-06T16:27:52;6.40;99.90
1405;DHT22;697;51.114;6.542;2024-01-06T16:30:19;6.40;99.90
1405;DHT22;697;51.114;6.542;2024-01-06T16:32:46;6.40;99.90
1405;DHT22;697;51.114;6.542;2024-01-06T16:35:16;6.40;99.90
1405;DHT22;697;51.114;6.542;2024-01-06T16:37:43;6.40;99.90
1405;DHT22;697;51.114;6.542;2024-01-06T16:40:14;6.40;99.90